sensor_id;sensor_type;location;lat;lon;timestamp;P1;durP1;ratioP1;P2;durP2;ratioP2
19235;SDS011;9752;54.270;12.470;2023-07-31T00:01:20;7.83;;;5.20;;
19235;SDS011;9752;54.270;12.470;2023-07-31T00:06:23;6.93;;;5.03;;
19235;SDS011;9752;54.270;12.470;2023-07-31T00:11:25;5.30;;;4.80;;
19235;SDS011;9752;54.270;12.470;2023-07-31T00:16:26;6.37;;;5.53;;
19235;SDS011;9752;54.270;12.470;2023-07-31T00:21:30;7.27;;;5.33;;
19235;SDS011;9752;54.270;12.470;2023-07-31T00:26:31;6.90;;;5.33;;
19235;SDS011;9752;54.270;12.470;2023-07-31T00:31:33;7.37;;;6.00;;
19235;SDS011;9752;54.270;12.470;2023-07-31T00:36:36;10.30;;;6.27;;
19235;SDS011;9752;54.270;12.470;2023-07-31T00:41:38;8.63;;;6.17;;
19235;SDS011;9752;54.270;12.470;2023-07-31T00:46:39;7.23;;;5.67;;
19235;SDS011;9752;54.270;12.470;2023-07-31T00:51:42;6.43;;;5.33;;
19235;SDS011;9752;54.270;12.470;2023-07-31T00:56:44;6.63;;;5.93;;
19235;SDS011;9752;54.270;12.470;2023-07-31T01:01:48;8.27;;;5.00;;
19235;SDS011;9752;54.270;12.470;2023-07-31T01:06:54;5.40;;;4.90;;
19235;SDS011;9752;54.270;12.470;2023-07-31T01:12:03;6.97;;;5.83;;
19235;SDS011;9752;54.270;12.470;2023-07-31T01:17:05;6.77;;;5.63;;
19235;SDS011;9752;54.270;12.470;2023-07-31T01:22:15;6.30;;;5.30;;
19235;SDS011;9752;54.270;12.470;2023-07-31T01:27:26;6.37;;;5.20;;
19235;SDS011;9752;54.270;12.470;2023-07-31T01:32:31;8.57;;;5.97;;
19235;SDS011;9752;54.270;12.470;2023-07-31T01:37:34;8.90;;;5.93;;
19235;SDS011;9752;54.270;12.470;2023-07-31T01:42:37;7.57;;;5.67;;
19235;SDS011;9752;54.270;12.470;2023-07-31T01:47:38;9.07;;;5.60;;
19235;SDS011;9752;54.270;12.470;2023-07-31T01:52:40;11.10;;;6.10;;
19235;SDS011;9752;54.270;12.470;2023-07-31T01:57:44;6.30;;;5.70;;
19235;SDS011;9752;54.270;12.470;2023-07-31T02:02:45;8.47;;;6.50;;
19235;SDS011;9752;54.270;12.470;2023-07-31T02:07:47;7.43;;;6.73;;
19235;SDS011;9752;54.270;12.470;2023-07-31T02:12:50;6.80;;;5.70;;
19235;SDS011;9752;54.270;12.470;2023-07-31T02:17:52;8.53;;;6.30;;
19235;SDS011;9752;54.270;12.470;2023-07-31T02:22:53;6.80;;;6.10;;
19235;SDS011;9752;54.270;12.470;2023-07-31T02:27:56;6.23;;;5.57;;
19235;SDS011;9752;54.270;12.470;2023-07-31T02:32:58;8.53;;;6.00;;
19235;SDS011;9752;54.270;12.470;2023-07-31T02:38:00;7.50;;;6.80;;
19235;SDS011;9752;54.270;12.470;2023-07-31T02:43:03;6.47;;;5.80;;
19235;SDS011;9752;54.270;12.470;2023-07-31T02:48:05;7.33;;;6.07;;
19235;SDS011;9752;54.270;12.470;2023-07-31T02:53:07;7.00;;;6.30;;
19235;SDS011;9752;54.270;12.470;2023-07-31T02:58:10;10.90;;;5.80;;
19235;SDS011;9752;54.270;12.470;2023-07-31T03:03:12;5.73;;;5.17;;
19235;SDS011;9752;54.270;12.470;2023-07-31T03:08:14;11.23;;;6.97;;
19235;SDS011;9752;54.270;12.470;2023-07-31T03:13:17;10.93;;;6.50;;
19235;SDS011;9752;54.270;12.470;2023-07-31T03:18:18;7.00;;;6.30;;
19235;SDS011;9752;54.270;12.470;2023-07-31T03:23:20;9.10;;;6.63;;
19235;SDS011;9752;54.270;12.470;2023-07-31T03:28:23;13.50;;;7.70;;
19235;SDS011;9752;54.270;12.470;2023-07-31T03:33:25;7.67;;;6.57;;
19235;SDS011;9752;54.270;12.470;2023-07-31T03:38:26;7.10;;;6.07;;
19235;SDS011;9752;54.270;12.470;2023-07-31T03:43:29;8.17;;;6.37;;
19235;SDS011;9752;54.270;12.470;2023-07-31T03:48:31;9.33;;;6.87;;
19235;SDS011;9752;54.270;12.470;2023-07-31T03:53:32;10.20;;;6.83;;
19235;SDS011;9752;54.270;12.470;2023-07-31T03:58:35;13.40;;;7.83;;
19235;SDS011;9752;54.270;12.470;2023-07-31T04:03:37;11.03;;;7.00;;
19235;SDS011;9752;54.270;12.470;2023-07-31T04:08:39;9.80;;;6.73;;
19235;SDS011;9752;54.270;12.470;2023-07-31T04:13:42;9.97;;;7.60;;
19235;SDS011;9752;54.270;12.470;2023-07-31T04:18:43;7.97;;;7.00;;
19235;SDS011;9752;54.270;12.470;2023-07-31T04:23:45;9.83;;;7.20;;
19235;SDS011;9752;54.270;12.470;2023-07-31T04:28:48;13.40;;;8.33;;
19235;SDS011;9752;54.270;12.470;2023-07-31T04:33:50;12.87;;;7.53;;
19235;SDS011;9752;54.270;12.470;2023-07-31T04:38:51;14.63;;;7.17;;
19235;SDS011;9752;54.270;12.470;2023-07-31T04:43:54;9.03;;;7.47;;
19235;SDS011;9752;54.270;12.470;2023-07-31T04:48:56;13.40;;;9.03;;
19235;SDS011;9752;54.270;12.470;2023-07-31T04:53:58;7.60;;;6.33;;
19235;SDS011;9752;54.270;12.470;2023-07-31T04:59:01;9.67;;;6.23;;
19235;SDS011;9752;54.270;12.470;2023-07-31T05:04:02;10.83;;;6.90;;
19235;SDS011;9752;54.270;12.470;2023-07-31T05:09:04;9.33;;;6.57;;
19235;SDS011;9752;54.270;12.470;2023-07-31T05:14:07;9.73;;;6.30;;
19235;SDS011;9752;54.270;12.470;2023-07-31T05:19:09;7.20;;;6.43;;
19235;SDS011;9752;54.270;12.470;2023-07-31T05:24:10;7.83;;;6.50;;
19235;SDS011;9752;54.270;12.470;2023-07-31T05:29:13;10.67;;;7.47;;
19235;SDS011;9752;54.270;12.470;2023-07-31T05:34:16;8.07;;;7.27;;
19235;SDS011;9752;54.270;12.470;2023-07-31T05:39:18;9.10;;;6.83;;
19235;SDS011;9752;54.270;12.470;2023-07-31T05:44:21;10.97;;;7.90;;
19235;SDS011;9752;54.270;12.470;2023-07-31T05:49:22;12.67;;;7.63;;
19235;SDS011;9752;54.270;12.470;2023-07-31T05:54:24;12.60;;;8.17;;
19235;SDS011;9752;54.270;12.470;2023-07-31T05:59:27;13.67;;;7.17;;
19235;SDS011;9752;54.270;12.470;2023-07-31T06:04:29;11.53;;;8.40;;
19235;SDS011;9752;54.270;12.470;2023-07-31T06:09:31;13.93;;;8.50;;
19235;SDS011;9752;54.270;12.470;2023-07-31T06:14:34;8.60;;;7.33;;
19235;SDS011;9752;54.270;12.470;2023-07-31T06:19:35;12.53;;;7.53;;
19235;SDS011;9752;54.270;12.470;2023-07-31T06:24:37;10.10;;;7.30;;
19235;SDS011;9752;54.270;12.470;2023-07-31T06:29:40;9.70;;;7.27;;
19235;SDS011;9752;54.270;12.470;2023-07-31T06:34:42;11.67;;;7.87;;
19235;SDS011;9752;54.270;12.470;2023-07-31T06:39:43;8.50;;;7.77;;
19235;SDS011;9752;54.270;12.470;2023-07-31T06:44:46;9.97;;;7.53;;
19235;SDS011;9752;54.270;12.470;2023-07-31T06:49:48;8.87;;;8.03;;
19235;SDS011;9752;54.270;12.470;2023-07-31T06:55:00;8.90;;;8.07;;
19235;SDS011;9752;54.270;12.470;2023-07-31T07:00:06;9.67;;;8.77;;
19235;SDS011;9752;54.270;12.470;2023-07-31T07:05:08;9.17;;;8.03;;
19235;SDS011;9752;54.270;12.470;2023-07-31T07:10:11;8.70;;;8.00;;
19235;SDS011;9752;54.270;12.470;2023-07-31T07:15:14;12.50;;;9.00;;
19235;SDS011;9752;54.270;12.470;2023-07-31T07:20:15;9.80;;;8.17;;
19235;SDS011;9752;54.270;12.470;2023-07-31T07:25:17;10.57;;;8.77;;
19235;SDS011;9752;54.270;12.470;2023-07-31T07:30:20;9.60;;;8.77;;
19235;SDS011;9752;54.270;12.470;2023-07-31T07:35:22;9.73;;;8.93;;
19235;SDS011;9752;54.270;12.470;2023-07-31T07:40:24;13.57;;;9.03;;
19235;SDS011;9752;54.270;12.470;2023-07-31T07:45:27;10.60;;;8.40;;
19235;SDS011;9752;54.270;12.470;2023-07-31T07:50:28;10.27;;;9.37;;
19235;SDS011;9752;54.270;12.470;2023-07-31T07:55:30;10.50;;;9.50;;
19235;SDS011;9752;54.270;12.470;2023-07-31T08:00:33;9.67;;;8.77;;
19235;SDS011;9752;54.270;12.470;2023-07-31T08:05:35;9.37;;;8.50;;
19235;SDS011;9752;54.270;12.470;2023-07-31T08:10:36;9.27;;;8.47;;
19235;SDS011;9752;54.270;12.470;2023-07-31T08:15:42;9.00;;;8.40;;
19235;SDS011;9752;54.270;12.470;2023-07-31T08:20:43;9.17;;;8.53;;
19235;SDS011;9752;54.270;12.470;2023-07-31T08:25:45;9.40;;;8.53;;
19235;SDS011;9752;54.270;12.470;2023-07-31T08:30:48;9.13;;;8.40;;
19235;SDS011;9752;54.270;12.470;2023-07-31T08:35:50;9.17;;;8.23;;
19235;SDS011;9752;54.270;12.470;2023-07-31T08:40:52;7.70;;;6.83;;
19235;SDS011;9752;54.270;12.470;2023-07-31T08:45:55;9.67;;;7.87;;
19235;SDS011;9752;54.270;12.470;2023-07-31T08:50:58;8.03;;;7.00;;
19235;SDS011;9752;54.270;12.470;2023-07-31T08:55:59;7.77;;;7.17;;
19235;SDS011;9752;54.270;12.470;2023-07-31T09:01:03;7.70;;;7.07;;
19235;SDS011;9752;54.270;12.470;2023-07-31T09:06:05;7.60;;;7.00;;
19235;SDS011;9752;54.270;12.470;2023-07-31T09:11:08;6.97;;;6.53;;
19235;SDS011;9752;54.270;12.470;2023-07-31T09:16:11;9.17;;;8.47;;
19235;SDS011;9752;54.270;12.470;2023-07-31T09:21:13;8.63;;;8.13;;
19235;SDS011;9752;54.270;12.470;2023-07-31T09:26:28;9.47;;;9.07;;
19235;SDS011;9752;54.270;12.470;2023-07-31T09:31:38;11.33;;;10.53;;
19235;SDS011;9752;54.270;12.470;2023-07-31T09:36:40;11.43;;;10.73;;
19235;SDS011;9752;54.270;12.470;2023-07-31T09:41:43;12.37;;;11.57;;
19235;SDS011;9752;54.270;12.470;2023-07-31T09:46:48;11.20;;;10.77;;
19235;SDS011;9752;54.270;12.470;2023-07-31T09:51:49;11.53;;;11.03;;
19235;SDS011;9752;54.270;12.470;2023-07-31T09:56:51;11.97;;;11.37;;
19235;SDS011;9752;54.270;12.470;2023-07-31T10:01:57;11.33;;;10.67;;
19235;SDS011;9752;54.270;12.470;2023-07-31T10:06:59;12.80;;;12.00;;
19235;SDS011;9752;54.270;12.470;2023-07-31T10:12:05;11.23;;;10.73;;
19235;SDS011;9752;54.270;12.470;2023-07-31T10:17:14;13.43;;;12.63;;
19235;SDS011;9752;54.270;12.470;2023-07-31T10:22:18;11.33;;;10.83;;
19235;SDS011;9752;54.270;12.470;2023-07-31T10:27:20;12.50;;;12.00;;
19235;SDS011;9752;54.270;12.470;2023-07-31T10:32:26;12.30;;;11.90;;
19235;SDS011;9752;54.270;12.470;2023-07-31T10:37:35;13.03;;;12.30;;
19235;SDS011;9752;54.270;12.470;2023-07-31T10:42:45;13.00;;;12.40;;
19235;SDS011;9752;54.270;12.470;2023-07-31T10:47:49;12.47;;;11.97;;
19235;SDS011;9752;54.270;12.470;2023-07-31T10:53:00;12.30;;;11.70;;
19235;SDS011;9752;54.270;12.470;2023-07-31T10:58:05;12.20;;;11.50;;
19235;SDS011;9752;54.270;12.470;2023-07-31T11:03:11;13.40;;;12.80;;
19235;SDS011;9752;54.270;12.470;2023-07-31T11:08:15;11.63;;;11.03;;
19235;SDS011;9752;54.270;12.470;2023-07-31T11:13:18;10.73;;;10.33;;
19235;SDS011;9752;54.270;12.470;2023-07-31T11:18:21;9.80;;;9.30;;
19235;SDS011;9752;54.270;12.470;2023-07-31T11:23:23;10.67;;;10.17;;
19235;SDS011;9752;54.270;12.470;2023-07-31T11:28:25;10.10;;;9.60;;
19235;SDS011;9752;54.270;12.470;2023-07-31T11:33:28;9.27;;;8.77;;
19235;SDS011;9752;54.270;12.470;2023-07-31T11:38:30;8.57;;;8.17;;
19235;SDS011;9752;54.270;12.470;2023-07-31T11:43:33;7.70;;;7.30;;
19235;SDS011;9752;54.270;12.470;2023-07-31T11:48:38;7.83;;;7.33;;
19235;SDS011;9752;54.270;12.470;2023-07-31T11:53:41;7.53;;;7.00;;
19235;SDS011;9752;54.270;12.470;2023-07-31T11:58:44;7.40;;;7.10;;
19235;SDS011;9752;54.270;12.470;2023-07-31T12:03:49;7.13;;;6.83;;
19235;SDS011;9752;54.270;12.470;2023-07-31T12:08:52;7.30;;;6.80;;
19235;SDS011;9752;54.270;12.470;2023-07-31T12:13:53;6.67;;;6.37;;
19235;SDS011;9752;54.270;12.470;2023-07-31T12:18:56;6.70;;;6.30;;
19235;SDS011;9752;54.270;12.470;2023-07-31T12:23:58;6.43;;;5.90;;
19235;SDS011;9752;54.270;12.470;2023-07-31T12:29:00;5.70;;;5.40;;
19235;SDS011;9752;54.270;12.470;2023-07-31T12:34:03;5.40;;;5.00;;
19235;SDS011;9752;54.270;12.470;2023-07-31T12:39:04;4.60;;;4.40;;
19235;SDS011;9752;54.270;12.470;2023-07-31T12:44:06;4.87;;;4.57;;
19235;SDS011;9752;54.270;12.470;2023-07-31T12:49:09;4.73;;;4.43;;
19235;SDS011;9752;54.270;12.470;2023-07-31T12:54:11;5.17;;;4.87;;
19235;SDS011;9752;54.270;12.470;2023-07-31T12:59:12;5.50;;;5.10;;
19235;SDS011;9752;54.270;12.470;2023-07-31T13:04:15;4.90;;;4.60;;
19235;SDS011;9752;54.270;12.470;2023-07-31T13:09:17;4.83;;;4.63;;
19235;SDS011;9752;54.270;12.470;2023-07-31T13:14:19;5.00;;;4.70;;
19235;SDS011;9752;54.270;12.470;2023-07-31T13:19:22;4.60;;;4.40;;
19235;SDS011;9752;54.270;12.470;2023-07-31T13:24:23;4.83;;;4.63;;
19235;SDS011;9752;54.270;12.470;2023-07-31T13:29:25;5.20;;;5.00;;
19235;SDS011;9752;54.270;12.470;2023-07-31T13:34:28;4.90;;;4.70;;
19235;SDS011;9752;54.270;12.470;2023-07-31T13:39:29;5.13;;;4.93;;
19235;SDS011;9752;54.270;12.470;2023-07-31T13:44:31;5.77;;;5.47;;
19235;SDS011;9752;54.270;12.470;2023-07-31T13:49:34;5.20;;;4.90;;
19235;SDS011;9752;54.270;12.470;2023-07-31T13:54:37;4.90;;;4.50;;
19235;SDS011;9752;54.270;12.470;2023-07-31T13:59:38;5.20;;;4.83;;
19235;SDS011;9752;54.270;12.470;2023-07-31T14:04:41;4.00;;;3.90;;
19235;SDS011;9752;54.270;12.470;2023-07-31T14:09:43;3.50;;;3.40;;
19235;SDS011;9752;54.270;12.470;2023-07-31T14:14:45;3.40;;;3.30;;
19235;SDS011;9752;54.270;12.470;2023-07-31T14:19:48;4.50;;;4.03;;
19235;SDS011;9752;54.270;12.470;2023-07-31T14:24:50;4.20;;;3.90;;
19235;SDS011;9752;54.270;12.470;2023-07-31T14:29:52;3.97;;;3.77;;
19235;SDS011;9752;54.270;12.470;2023-07-31T14:34:55;3.43;;;3.30;;
19235;SDS011;9752;54.270;12.470;2023-07-31T14:39:57;3.40;;;3.30;;
19235;SDS011;9752;54.270;12.470;2023-07-31T14:44:59;3.70;;;3.40;;
19235;SDS011;9752;54.270;12.470;2023-07-31T14:50:02;3.60;;;3.40;;
19235;SDS011;9752;54.270;12.470;2023-07-31T14:55:04;3.20;;;3.10;;
19235;SDS011;9752;54.270;12.470;2023-07-31T15:00:07;3.37;;;3.27;;
19235;SDS011;9752;54.270;12.470;2023-07-31T15:05:11;3.60;;;3.50;;
19235;SDS011;9752;54.270;12.470;2023-07-31T15:10:13;3.87;;;3.77;;
19235;SDS011;9752;54.270;12.470;2023-07-31T15:15:15;3.60;;;3.50;;
19235;SDS011;9752;54.270;12.470;2023-07-31T15:20:18;3.70;;;3.60;;
19235;SDS011;9752;54.270;12.470;2023-07-31T15:25:19;3.17;;;3.07;;
19235;SDS011;9752;54.270;12.470;2023-07-31T15:30:21;3.80;;;3.60;;
19235;SDS011;9752;54.270;12.470;2023-07-31T15:35:24;3.80;;;3.60;;
19235;SDS011;9752;54.270;12.470;2023-07-31T15:40:26;5.00;;;4.00;;
19235;SDS011;9752;54.270;12.470;2023-07-31T15:45:28;3.20;;;3.10;;
19235;SDS011;9752;54.270;12.470;2023-07-31T15:50:31;3.80;;;3.50;;
19235;SDS011;9752;54.270;12.470;2023-07-31T15:55:33;3.50;;;3.30;;
19235;SDS011;9752;54.270;12.470;2023-07-31T16:00:35;3.53;;;3.33;;
19235;SDS011;9752;54.270;12.470;2023-07-31T16:05:38;3.17;;;2.87;;
19235;SDS011;9752;54.270;12.470;2023-07-31T16:10:39;3.33;;;3.10;;
19235;SDS011;9752;54.270;12.470;2023-07-31T16:15:41;5.00;;;4.17;;
19235;SDS011;9752;54.270;12.470;2023-07-31T16:20:44;3.83;;;3.50;;
19235;SDS011;9752;54.270;12.470;2023-07-31T16:25:45;4.50;;;4.20;;
19235;SDS011;9752;54.270;12.470;2023-07-31T16:30:47;5.30;;;4.20;;
19235;SDS011;9752;54.270;12.470;2023-07-31T16:35:50;4.70;;;4.20;;
19235;SDS011;9752;54.270;12.470;2023-07-31T16:40:52;3.90;;;3.60;;
19235;SDS011;9752;54.270;12.470;2023-07-31T16:45:53;4.03;;;3.37;;
19235;SDS011;9752;54.270;12.470;2023-07-31T16:50:56;3.87;;;3.57;;
19235;SDS011;9752;54.270;12.470;2023-07-31T16:55:58;4.43;;;3.87;;
19235;SDS011;9752;54.270;12.470;2023-07-31T17:00:59;3.77;;;3.23;;
19235;SDS011;9752;54.270;12.470;2023-07-31T17:06:02;4.23;;;3.93;;
19235;SDS011;9752;54.270;12.470;2023-07-31T17:11:04;3.80;;;3.40;;
19235;SDS011;9752;54.270;12.470;2023-07-31T17:16:06;4.07;;;3.77;;
19235;SDS011;9752;54.270;12.470;2023-07-31T17:21:09;3.83;;;3.53;;
19235;SDS011;9752;54.270;12.470;2023-07-31T17:26:10;3.57;;;3.37;;
19235;SDS011;9752;54.270;12.470;2023-07-31T17:31:13;3.53;;;3.33;;
19235;SDS011;9752;54.270;12.470;2023-07-31T17:36:16;3.60;;;3.30;;
19235;SDS011;9752;54.270;12.470;2023-07-31T17:41:18;4.10;;;3.23;;
19235;SDS011;9752;54.270;12.470;2023-07-31T17:46:20;4.20;;;3.80;;
19235;SDS011;9752;54.270;12.470;2023-07-31T17:51:23;5.80;;;4.60;;
19235;SDS011;9752;54.270;12.470;2023-07-31T17:56:25;3.87;;;3.57;;
19235;SDS011;9752;54.270;12.470;2023-07-31T18:01:28;4.73;;;3.77;;
19235;SDS011;9752;54.270;12.470;2023-07-31T18:06:31;3.70;;;3.40;;
19235;SDS011;9752;54.270;12.470;2023-07-31T18:11:34;4.00;;;3.70;;
19235;SDS011;9752;54.270;12.470;2023-07-31T18:16:37;3.27;;;3.07;;
19235;SDS011;9752;54.270;12.470;2023-07-31T18:21:40;3.87;;;3.10;;
19235;SDS011;9752;54.270;12.470;2023-07-31T18:26:41;4.00;;;3.20;;
19235;SDS011;9752;54.270;12.470;2023-07-31T18:31:43;3.70;;;3.40;;
19235;SDS011;9752;54.270;12.470;2023-07-31T18:36:46;4.10;;;3.60;;
19235;SDS011;9752;54.270;12.470;2023-07-31T18:41:48;3.87;;;3.60;;
19235;SDS011;9752;54.270;12.470;2023-07-31T18:46:49;3.67;;;3.47;;
19235;SDS011;9752;54.270;12.470;2023-07-31T18:51:52;3.93;;;3.73;;
19235;SDS011;9752;54.270;12.470;2023-07-31T18:56:54;4.27;;;3.77;;
19235;SDS011;9752;54.270;12.470;2023-07-31T19:01:56;3.30;;;3.10;;
19235;SDS011;9752;54.270;12.470;2023-07-31T19:06:59;3.97;;;3.70;;
19235;SDS011;9752;54.270;12.470;2023-07-31T19:12:01;3.03;;;2.90;;
19235;SDS011;9752;54.270;12.470;2023-07-31T19:17:02;4.00;;;3.70;;
19235;SDS011;9752;54.270;12.470;2023-07-31T19:22:05;4.40;;;3.67;;
19235;SDS011;9752;54.270;12.470;2023-07-31T19:27:07;3.93;;;3.23;;
19235;SDS011;9752;54.270;12.470;2023-07-31T19:32:09;3.27;;;3.07;;
19235;SDS011;9752;54.270;12.470;2023-07-31T19:37:14;3.70;;;3.40;;
19235;SDS011;9752;54.270;12.470;2023-07-31T19:42:16;3.40;;;3.10;;
19235;SDS011;9752;54.270;12.470;2023-07-31T19:47:18;3.80;;;3.60;;
19235;SDS011;9752;54.270;12.470;2023-07-31T19:52:21;4.43;;;3.70;;
19235;SDS011;9752;54.270;12.470;2023-07-31T19:57:23;6.17;;;3.63;;
19235;SDS011;9752;54.270;12.470;2023-07-31T20:02:24;3.97;;;3.67;;
19235;SDS011;9752;54.270;12.470;2023-07-31T20:07:27;4.37;;;3.70;;
19235;SDS011;9752;54.270;12.470;2023-07-31T20:12:29;4.40;;;3.60;;
19235;SDS011;9752;54.270;12.470;2023-07-31T20:17:31;3.20;;;3.00;;
19235;SDS011;9752;54.270;12.470;2023-07-31T20:22:34;6.47;;;4.10;;
19235;SDS011;9752;54.270;12.470;2023-07-31T20:27:35;4.17;;;3.87;;
19235;SDS011;9752;54.270;12.470;2023-07-31T20:32:37;4.13;;;3.37;;
19235;SDS011;9752;54.270;12.470;2023-07-31T20:37:40;4.73;;;3.60;;
19235;SDS011;9752;54.270;12.470;2023-07-31T20:42:42;4.80;;;3.83;;
19235;SDS011;9752;54.270;12.470;2023-07-31T20:47:44;4.90;;;3.83;;
19235;SDS011;9752;54.270;12.470;2023-07-31T20:52:47;9.67;;;4.80;;
19235;SDS011;9752;54.270;12.470;2023-07-31T20:57:49;4.00;;;3.70;;
19235;SDS011;9752;54.270;12.470;2023-07-31T21:02:51;4.23;;;3.70;;
19235;SDS011;9752;54.270;12.470;2023-07-31T21:07:54;4.67;;;4.23;;
19235;SDS011;9752;54.270;12.470;2023-07-31T21:12:55;4.10;;;3.80;;
19235;SDS011;9752;54.270;12.470;2023-07-31T21:17:57;5.10;;;4.70;;
19235;SDS011;9752;54.270;12.470;2023-07-31T21:23:00;4.90;;;4.43;;
19235;SDS011;9752;54.270;12.470;2023-07-31T21:28:06;4.70;;;4.30;;
19235;SDS011;9752;54.270;12.470;2023-07-31T21:33:07;4.13;;;3.87;;
19235;SDS011;9752;54.270;12.470;2023-07-31T21:38:11;6.13;;;4.60;;
19235;SDS011;9752;54.270;12.470;2023-07-31T21:43:13;5.47;;;4.97;;
19235;SDS011;9752;54.270;12.470;2023-07-31T21:48:15;8.90;;;6.77;;
19235;SDS011;9752;54.270;12.470;2023-07-31T21:53:18;6.80;;;5.73;;
19235;SDS011;9752;54.270;12.470;2023-07-31T21:58:20;7.93;;;6.77;;
19235;SDS011;9752;54.270;12.470;2023-07-31T22:03:21;7.77;;;6.90;;
19235;SDS011;9752;54.270;12.470;2023-07-31T22:08:25;6.70;;;6.20;;
19235;SDS011;9752;54.270;12.470;2023-07-31T22:13:26;10.10;;;6.90;;
19235;SDS011;9752;54.270;12.470;2023-07-31T22:18:28;14.13;;;9.50;;
19235;SDS011;9752;54.270;12.470;2023-07-31T22:23:31;8.83;;;7.30;;
19235;SDS011;9752;54.270;12.470;2023-07-31T22:28:33;15.67;;;9.83;;
19235;SDS011;9752;54.270;12.470;2023-07-31T22:33:35;10.90;;;8.77;;
19235;SDS011;9752;54.270;12.470;2023-07-31T22:38:38;9.70;;;8.43;;
19235;SDS011;9752;54.270;12.470;2023-07-31T22:43:39;13.50;;;10.07;;
19235;SDS011;9752;54.270;12.470;2023-07-31T22:48:41;8.90;;;8.10;;
19235;SDS011;9752;54.270;12.470;2023-07-31T22:53:44;10.50;;;9.40;;
19235;SDS011;9752;54.270;12.470;2023-07-31T22:58:46;10.33;;;9.23;;
19235;SDS011;9752;54.270;12.470;2023-07-31T23:03:47;16.30;;;10.70;;
19235;SDS011;9752;54.270;12.470;2023-07-31T23:08:51;13.10;;;11.80;;
19235;SDS011;9752;54.270;12.470;2023-07-31T23:13:52;13.87;;;12.57;;
19235;SDS011;9752;54.270;12.470;2023-07-31T23:18:54;21.87;;;15.47;;
19235;SDS011;9752;54.270;12.470;2023-07-31T23:23:57;16.20;;;13.57;;
19235;SDS011;9752;54.270;12.470;2023-07-31T23:28:59;16.13;;;14.40;;
19235;SDS011;9752;54.270;12.470;2023-07-31T23:34:01;17.03;;;15.20;;
19235;SDS011;9752;54.270;12.470;2023-07-31T23:39:04;14.83;;;13.40;;
19235;SDS011;9752;54.270;12.470;2023-07-31T23:44:06;16.43;;;14.30;;
19235;SDS011;9752;54.270;12.470;2023-07-31T23:49:08;20.93;;;15.60;;
19235;SDS011;9752;54.270;12.470;2023-07-31T23:54:11;14.63;;;13.17;;
19235;SDS011;9752;54.270;12.470;2023-07-31T23:59:14;14.87;;;13.37;;
